»·PEaware :: NKS618 KPSP-KLAS

NKS618 :: KPSP-KLAS

FLIGHT INFORMATION

Flight Status: Arrived
Operator:
Spirit Airlines
More flights by this operator :: More flights under this callsign
Pilot: Drew L. (13237)
Aircraft: AIRBUS A320
(A320)
More flights by this aircraft type
Origin: KPSP Palm Springs Intl
United States
Destination: KLAS McCarran Intl
United States
More flights between these airports :: More routes between these airports
Route: CATH1 PSP V370 TNP KEPEC6
File this flight plan on PilotEdge
Remarks: PBN / A1B1C1D1O1S1 DOF / 171201 REG / N320SB OPR / NKS PER / C RMK / TCAS SIMBRIEF
Altitude:
(Current/Filed)
25,000ft
Speed:
(Current/Filed)
462kts
Departed: 30-Nov-17 05:52 PM
Arrived: 30-Nov-17 06:26 PM
Distance/Time
Traveled:
151nm/0:34
Distance/Time
To Go:
Arrived

Flight Plot

Page will automatically refresh every two minutes.

Flight plan parsing failed; only flown route is shown


Map Options




Map Legend


Flown Route
Filed Route
Departure Airport
Arrival Airport
Navaid (VOR, NDB)
Fix

Horizontal Profiles

Position Reports

Time Latitude Longitude Heading Altitude Ground
Speed
30-Nov-17 17:38 33.823713 -116.506186 225 486ft 0kts
30-Nov-17 17:39 33.823713 -116.506186 225 486ft 0kts
30-Nov-17 17:40 33.823713 -116.506186 225 486ft 0kts
30-Nov-17 17:41 33.823713 -116.506186 225 486ft 0kts
30-Nov-17 17:42 33.823713 -116.506186 225 486ft 0kts
30-Nov-17 17:43 33.823713 -116.506186 225 486ft 0kts
30-Nov-17 17:44 33.823713 -116.506186 225 486ft 0kts
30-Nov-17 17:45 33.823713 -116.506186 225 486ft 0kts
30-Nov-17 17:46 33.823713 -116.506186 225 486ft 0kts
30-Nov-17 17:47 33.823713 -116.506186 225 486ft 0kts
30-Nov-17 17:48 33.823713 -116.506186 225 486ft 0kts
30-Nov-17 17:49 33.823713 -116.506186 225 486ft 0kts
30-Nov-17 17:50 33.823941 -116.505900 218 486ft 2kts
30-Nov-17 17:51 33.824419 -116.505902 142 486ft 1kts
30-Nov-17 17:52 33.824436 -116.505917 143 486ft 0kts
30-Nov-17 17:53 33.823734 -116.505298 143 486ft 12kts
30-Nov-17 17:54 33.823027 -116.504602 111 486ft 4kts
30-Nov-17 17:55 33.820843 -116.501819 143 486ft 21kts
30-Nov-17 17:56 33.818868 -116.498187 11 486ft 13kts
30-Nov-17 17:57 33.843217 -116.518963 325 1883ft 192kts
30-Nov-17 17:58 33.890452 -116.563587 322 5158ft 255kts
30-Nov-17 17:59 33.950260 -116.552357 57 6989ft 275kts
30-Nov-17 18:00 33.968000 -116.461630 72 9358ft 290kts
30-Nov-17 18:01 33.990640 -116.363537 74 12239ft 336kts
30-Nov-17 18:02 34.013008 -116.257483 75 13129ft 364kts
30-Nov-17 18:03 34.037480 -116.138840 75 14670ft 372kts
30-Nov-17 18:04 34.062570 -116.015805 74 17251ft 386kts
30-Nov-17 18:05 34.088387 -115.888409 75 19744ft 393kts
30-Nov-17 18:06 34.144001 -115.780035 32 21340ft 425kts
30-Nov-17 18:07 34.262293 -115.753236 2 23055ft 442kts
30-Nov-17 18:08 34.383209 -115.740391 1 25165ft 436kts
30-Nov-17 18:09 34.507536 -115.726784 2 25215ft 456kts
30-Nov-17 18:10 34.633710 -115.712955 2 25215ft 456kts
30-Nov-17 18:11 34.759534 -115.699113 2 25216ft 456kts
30-Nov-17 18:12 34.885692 -115.685185 2 25122ft 456kts
30-Nov-17 18:13 35.011462 -115.671260 2 25131ft 456kts
30-Nov-17 18:14 35.127462 -115.658375 1 25196ft 456kts
30-Nov-17 18:15 35.247078 -115.645057 1 25196ft 456kts
30-Nov-17 18:16 35.372068 -115.631089 1 24944ft 435kts
30-Nov-17 18:17 35.486900 -115.625683 345 22969ft 408kts
30-Nov-17 18:18 35.596863 -115.658204 347 20116ft 417kts
30-Nov-17 18:19 35.701865 -115.645296 43 18098ft 377kts
30-Nov-17 18:20 35.769355 -115.549972 52 15626ft 370kts
30-Nov-17 18:21 35.826767 -115.447266 61 13143ft 360kts
30-Nov-17 18:22 35.869699 -115.343724 62 11337ft 338kts
30-Nov-17 18:23 35.912855 -115.245373 62 9353ft 308kts
30-Nov-17 18:24 35.951826 -115.157661 62 7460ft 279kts
30-Nov-17 18:25 35.986937 -115.079010 62 6158ft 248kts
30-Nov-17 18:26 36.018161 -115.007476 62 5037ft 220kts
30-Nov-17 18:27 36.065739 -114.997089 317 4106ft 190kts
30-Nov-17 18:28 36.073330 -115.054992 274 3174ft 169kts
30-Nov-17 18:29 36.073704 -115.104559 269 2545ft 138kts
30-Nov-17 18:30 36.073648 -115.145490 270 2150ft 55kts
30-Nov-17 18:31 36.074770 -115.150629 301 2150ft 4kts
30-Nov-17 18:32 36.078030 -115.152420 64 2150ft 13kts
30-Nov-17 18:33 36.078535 -115.147160 95 2150ft 17kts
30-Nov-17 18:34 36.079485 -115.142410 0 2150ft 15kts
30-Nov-17 18:35 36.083850 -115.141347 48 2150ft 16kts
30-Nov-17 18:36 36.085198 -115.139421 0 2150ft 0kts

Navigation Log

Ident Type
Flight plan parsing failed, navigation log unavailable